RYR65 GCLP-GCXO
Flight info
| Callsign | RYR65 |
|---|---|
| Flight time | 0h 24m |
| Altitude | 13000 |
| Route | TFN |
| Aircraft | B738/M-SDE2E3FGHIRWXY/LB1 |
Departure
| Time | 2026-05-06 12:22 |
|---|---|
| Airport | Gran Canaria Airport (GCLP) |
Arrival
| Time | 2026-05-06 12:46 |
|---|---|
| Airport | Tenerife Norte-Ciudad de La Laguna Airport (GCXO) |
| Time | Latitude | Longitude | Altitude | Speed | Heading |
|---|---|---|---|---|---|
| 2026-05-06 11:37 | 27.93844 | -15.38650 | 81 ft | 0 kts | 291° |
| 2026-05-06 12:15 | 27.93846 | -15.38658 | 84 ft | 4 kts | 291° |
| 2026-05-06 12:15 | 27.93857 | -15.38694 | 85 ft | 5 kts | 276° |
| 2026-05-06 12:15 | 27.93831 | -15.38730 | 84 ft | 9 kts | 211° |
| 2026-05-06 12:15 | 27.93757 | -15.38766 | 85 ft | 13 kts | 201° |
| 2026-05-06 12:16 | 27.93676 | -15.38802 | 84 ft | 12 kts | 201° |
| 2026-05-06 12:16 | 27.93597 | -15.38837 | 85 ft | 12 kts | 201° |
| 2026-05-06 12:16 | 27.93520 | -15.38868 | 86 ft | 12 kts | 197° |
| 2026-05-06 12:16 | 27.93445 | -15.38851 | 82 ft | 12 kts | 128° |
| 2026-05-06 12:17 | 27.93403 | -15.38765 | 71 ft | 8 kts | 145° |
| 2026-05-06 12:17 | 27.93347 | -15.38777 | 71 ft | 10 kts | 202° |
| 2026-05-06 12:17 | 27.93286 | -15.38808 | 68 ft | 10 kts | 204° |
| 2026-05-06 12:17 | 27.93221 | -15.38835 | 70 ft | 11 kts | 201° |
| 2026-05-06 12:18 | 27.93139 | -15.38877 | 66 ft | 16 kts | 208° |
| 2026-05-06 12:18 | 27.93021 | -15.38933 | 73 ft | 22 kts | 202° |
| 2026-05-06 12:18 | 27.92862 | -15.39009 | 81 ft | 27 kts | 204° |
| 2026-05-06 12:18 | 27.92675 | -15.39085 | 88 ft | 29 kts | 202° |
| 2026-05-06 12:19 | 27.92495 | -15.39165 | 95 ft | 27 kts | 201° |
| 2026-05-06 12:19 | 27.92326 | -15.39240 | 98 ft | 25 kts | 201° |
| 2026-05-06 12:19 | 27.92168 | -15.39305 | 97 ft | 23 kts | 193° |
| 2026-05-06 12:19 | 27.92033 | -15.39303 | 91 ft | 8 kts | 174° |
| 2026-05-06 12:20 | 27.92030 | -15.39302 | 91 ft | 0 kts | 174° |
| 2026-05-06 12:21 | 27.92015 | -15.39301 | 90 ft | 7 kts | 174° |
| 2026-05-06 12:21 | 27.91937 | -15.39279 | 87 ft | 16 kts | 142° |
| 2026-05-06 12:21 | 27.91979 | -15.39191 | 83 ft | 16 kts | 24° |
| 2026-05-06 12:21 | 27.92151 | -15.39112 | 82 ft | 54 kts | 21° |
| 2026-05-06 12:22 | 27.92744 | -15.38852 | 62 ft | 123 kts | 21° |
| 2026-05-06 12:22 | 27.93671 | -15.38435 | 266 ft | 156 kts | 23° |
| 2026-05-06 12:22 | 27.94723 | -15.37933 | 820 ft | 171 kts | 21° |
| 2026-05-06 12:22 | 27.95829 | -15.37459 | 1677 ft | 161 kts | 20° |
| 2026-05-06 12:23 | 27.96824 | -15.37128 | 2711 ft | 142 kts | 18° |
| 2026-05-06 12:23 | 27.97732 | -15.36751 | 3389 ft | 141 kts | 19° |
| 2026-05-06 12:23 | 27.98643 | -15.36332 | 3905 ft | 140 kts | 19° |
| 2026-05-06 12:23 | 27.99554 | -15.35920 | 4358 ft | 150 kts | 18° |
| 2026-05-06 12:24 | 28.00568 | -15.35472 | 4790 ft | 161 kts | 20° |
| 2026-05-06 12:24 | 28.01645 | -15.35003 | 5282 ft | 168 kts | 18° |
| 2026-05-06 12:24 | 28.02788 | -15.34510 | 5641 ft | 187 kts | 16° |
| 2026-05-06 12:24 | 28.04125 | -15.34531 | 5836 ft | 205 kts | 333° |
| 2026-05-06 12:25 | 28.05125 | -15.35727 | 6013 ft | 225 kts | 293° |
| 2026-05-06 12:25 | 28.05675 | -15.37478 | 6205 ft | 248 kts | 291° |
| 2026-05-06 12:25 | 28.06348 | -15.39363 | 6635 ft | 263 kts | 294° |
| 2026-05-06 12:25 | 28.07084 | -15.41267 | 7370 ft | 264 kts | 294° |
| 2026-05-06 12:26 | 28.07850 | -15.43166 | 8159 ft | 268 kts | 296° |
| 2026-05-06 12:26 | 28.08801 | -15.45007 | 8857 ft | 274 kts | 301° |
| 2026-05-06 12:26 | 28.09834 | -15.46826 | 9666 ft | 276 kts | 301° |
| 2026-05-06 12:26 | 28.10875 | -15.48668 | 10433 ft | 279 kts | 301° |
| 2026-05-06 12:27 | 28.11916 | -15.50533 | 11171 ft | 282 kts | 300° |
| 2026-05-06 12:27 | 28.12967 | -15.52431 | 11740 ft | 285 kts | 300° |
| 2026-05-06 12:27 | 28.14025 | -15.54346 | 12005 ft | 287 kts | 300° |
| 2026-05-06 12:27 | 28.15087 | -15.56273 | 12030 ft | 288 kts | 300° |
| 2026-05-06 12:28 | 28.16145 | -15.58193 | 12030 ft | 287 kts | 300° |
| 2026-05-06 12:28 | 28.17185 | -15.60083 | 12048 ft | 287 kts | 300° |
| 2026-05-06 12:28 | 28.18243 | -15.62004 | 12046 ft | 287 kts | 300° |
| 2026-05-06 12:28 | 28.19296 | -15.63921 | 12033 ft | 287 kts | 300° |
| 2026-05-06 12:29 | 28.20350 | -15.65838 | 12044 ft | 286 kts | 300° |
| 2026-05-06 12:29 | 28.21403 | -15.67755 | 12035 ft | 286 kts | 300° |
| 2026-05-06 12:29 | 28.22456 | -15.69672 | 12037 ft | 286 kts | 300° |
| 2026-05-06 12:29 | 28.23510 | -15.71592 | 12046 ft | 287 kts | 300° |
| 2026-05-06 12:30 | 28.24565 | -15.73517 | 12033 ft | 288 kts | 300° |
| 2026-05-06 12:30 | 28.25659 | -15.75514 | 12058 ft | 311 kts | 300° |
| 2026-05-06 12:30 | 28.26848 | -15.77688 | 12063 ft | 338 kts | 300° |
| 2026-05-06 12:30 | 28.28129 | -15.80030 | 12057 ft | 361 kts | 300° |
| 2026-05-06 12:31 | 28.29491 | -15.82520 | 12056 ft | 379 kts | 300° |
| 2026-05-06 12:31 | 28.30897 | -15.85087 | 12038 ft | 385 kts | 301° |
| 2026-05-06 12:31 | 28.32303 | -15.87654 | 12024 ft | 382 kts | 301° |
| 2026-05-06 12:31 | 28.33700 | -15.90208 | 12025 ft | 379 kts | 301° |
| 2026-05-06 12:32 | 28.35090 | -15.92751 | 12030 ft | 378 kts | 301° |
| 2026-05-06 12:32 | 28.36475 | -15.95288 | 12028 ft | 378 kts | 301° |
| 2026-05-06 12:32 | 28.37857 | -15.97822 | 12040 ft | 378 kts | 300° |
| 2026-05-06 12:32 | 28.39245 | -16.00367 | 12042 ft | 379 kts | 301° |
| 2026-05-06 12:33 | 28.40638 | -16.02925 | 12045 ft | 381 kts | 301° |
| 2026-05-06 12:33 | 28.42018 | -16.05455 | 12036 ft | 369 kts | 301° |
| 2026-05-06 12:33 | 28.43340 | -16.07875 | 12016 ft | 353 kts | 301° |
| 2026-05-06 12:33 | 28.44623 | -16.10225 | 11664 ft | 348 kts | 301° |
| 2026-05-06 12:34 | 28.45893 | -16.12553 | 11209 ft | 344 kts | 301° |
| 2026-05-06 12:34 | 28.47126 | -16.14816 | 10924 ft | 336 kts | 301° |
| 2026-05-06 12:34 | 28.48331 | -16.17028 | 10780 ft | 323 kts | 301° |
| 2026-05-06 12:34 | 28.49493 | -16.19165 | 10628 ft | 312 kts | 301° |
| 2026-05-06 12:35 | 28.50631 | -16.21255 | 10512 ft | 301 kts | 300° |
| 2026-05-06 12:35 | 28.51694 | -16.23209 | 10393 ft | 287 kts | 301° |
| 2026-05-06 12:35 | 28.52719 | -16.25095 | 10265 ft | 274 kts | 301° |
| 2026-05-06 12:35 | 28.53682 | -16.26905 | 10146 ft | 260 kts | 296° |
| 2026-05-06 12:36 | 28.54271 | -16.28790 | 10012 ft | 247 kts | 285° |
| 2026-05-06 12:36 | 28.54739 | -16.30646 | 9744 ft | 240 kts | 286° |
| 2026-05-06 12:36 | 28.55207 | -16.32436 | 9487 ft | 233 kts | 287° |
| 2026-05-06 12:36 | 28.55675 | -16.34190 | 9244 ft | 230 kts | 287° |
| 2026-05-06 12:37 | 28.56140 | -16.35927 | 9008 ft | 230 kts | 287° |
| 2026-05-06 12:37 | 28.56606 | -16.37667 | 8761 ft | 229 kts | 287° |
| 2026-05-06 12:37 | 28.57069 | -16.39395 | 8509 ft | 229 kts | 287° |
| 2026-05-06 12:37 | 28.57534 | -16.41128 | 8265 ft | 229 kts | 287° |
| 2026-05-06 12:38 | 28.58000 | -16.42867 | 8006 ft | 230 kts | 287° |
| 2026-05-06 12:38 | 28.58472 | -16.44625 | 7674 ft | 234 kts | 287° |
| 2026-05-06 12:38 | 28.58945 | -16.46389 | 7500 ft | 231 kts | 287° |
| 2026-05-06 12:38 | 28.59409 | -16.48119 | 7368 ft | 226 kts | 287° |
| 2026-05-06 12:39 | 28.59858 | -16.49795 | 7245 ft | 218 kts | 287° |
| 2026-05-06 12:39 | 28.60294 | -16.51425 | 7166 ft | 214 kts | 287° |
| 2026-05-06 12:39 | 28.60727 | -16.53041 | 7114 ft | 212 kts | 287° |
| 2026-05-06 12:39 | 28.61153 | -16.54630 | 7023 ft | 209 kts | 287° |
| 2026-05-06 12:40 | 28.61543 | -16.56209 | 6857 ft | 209 kts | 278° |
| 2026-05-06 12:40 | 28.61306 | -16.57829 | 6633 ft | 213 kts | 243° |
| 2026-05-06 12:40 | 28.60284 | -16.59055 | 6416 ft | 218 kts | 212° |
| 2026-05-06 12:40 | 28.58884 | -16.59677 | 6181 ft | 216 kts | 189° |
| 2026-05-06 12:41 | 28.57453 | -16.59343 | 5919 ft | 212 kts | 145° |
| 2026-05-06 12:41 | 28.56568 | -16.58039 | 5751 ft | 211 kts | 115° |
| 2026-05-06 12:41 | 28.55893 | -16.56549 | 5525 ft | 211 kts | 117° |
| 2026-05-06 12:41 | 28.55266 | -16.55074 | 5289 ft | 204 kts | 113° |
| 2026-05-06 12:42 | 28.54739 | -16.53610 | 5064 ft | 194 kts | 111° |
| 2026-05-06 12:42 | 28.54269 | -16.52218 | 4871 ft | 182 kts | 110° |
| 2026-05-06 12:42 | 28.53836 | -16.50919 | 4696 ft | 171 kts | 110° |
| 2026-05-06 12:42 | 28.53420 | -16.49667 | 4581 ft | 167 kts | 109° |
| 2026-05-06 12:43 | 28.53005 | -16.48420 | 4438 ft | 171 kts | 110° |
| 2026-05-06 12:43 | 28.52588 | -16.47167 | 4219 ft | 168 kts | 109° |
| 2026-05-06 12:43 | 28.52182 | -16.45945 | 3988 ft | 162 kts | 110° |
| 2026-05-06 12:43 | 28.51789 | -16.44767 | 3762 ft | 157 kts | 108° |
| 2026-05-06 12:44 | 28.51404 | -16.43606 | 3569 ft | 158 kts | 109° |
| 2026-05-06 12:44 | 28.51018 | -16.42447 | 3372 ft | 154 kts | 108° |
| 2026-05-06 12:44 | 28.50650 | -16.41330 | 3161 ft | 150 kts | 107° |
| 2026-05-06 12:44 | 28.50297 | -16.40214 | 2944 ft | 151 kts | 105° |
| 2026-05-06 12:45 | 28.49918 | -16.39108 | 2778 ft | 152 kts | 112° |
| 2026-05-06 12:45 | 28.49528 | -16.37993 | 2633 ft | 152 kts | 109° |
| 2026-05-06 12:45 | 28.48770 | -16.35705 | 2095 ft | 145 kts | 110° |
| 2026-05-06 12:46 | 28.48463 | -16.34750 | 2076 ft | 105 kts | 110° |
| 2026-05-06 12:46 | 28.48326 | -16.34332 | 2060 ft | 63 kts | 110° |
| 2026-05-06 12:46 | 28.48203 | -16.33955 | 2049 ft | 47 kts | 111° |
| 2026-05-06 12:46 | 28.48140 | -16.33648 | 2038 ft | 19 kts | 94° |
| 2026-05-06 12:47 | 28.48158 | -16.33558 | 2037 ft | 3 kts | 18° |
| 2026-05-06 12:47 | 28.48182 | -16.33567 | 2036 ft | 4 kts | 318° |
| 2026-05-06 12:47 | 28.48197 | -16.33597 | 2037 ft | 4 kts | 300° |
| 2026-05-06 12:47 | 28.48210 | -16.33627 | 2034 ft | 4 kts | 295° |
| 2026-05-06 12:48 | 28.48223 | -16.33657 | 2038 ft | 4 kts | 295° |
| 2026-05-06 12:48 | 28.48235 | -16.33688 | 2043 ft | 5 kts | 294° |
| 2026-05-06 12:48 | 28.48249 | -16.33725 | 2038 ft | 5 kts | 294° |
| 2026-05-06 12:48 | 28.48261 | -16.33764 | 2043 ft | 6 kts | 286° |
| 2026-05-06 12:49 | 28.48272 | -16.33808 | 2040 ft | 6 kts | 286° |
| 2026-05-06 12:49 | 28.48284 | -16.33852 | 2038 ft | 6 kts | 288° |
| 2026-05-06 12:49 | 28.48298 | -16.33900 | 2040 ft | 7 kts | 288° |
| 2026-05-06 12:49 | 28.48319 | -16.33961 | 2040 ft | 9 kts | 294° |
| 2026-05-06 12:50 | 28.48345 | -16.34037 | 2047 ft | 11 kts | 289° |
| 2026-05-06 12:50 | 28.48370 | -16.34118 | 2046 ft | 11 kts | 289° |
| 2026-05-06 12:50 | 28.48396 | -16.34201 | 2052 ft | 11 kts | 289° |
| 2026-05-06 12:50 | 28.48425 | -16.34283 | 2053 ft | 12 kts | 293° |
| 2026-05-06 12:51 | 28.48458 | -16.34370 | 2056 ft | 12 kts | 293° |
| 2026-05-06 12:51 | 28.48490 | -16.34458 | 2060 ft | 12 kts | 291° |
| 2026-05-06 12:51 | 28.48520 | -16.34547 | 2065 ft | 12 kts | 291° |
| 2026-05-06 12:51 | 28.48549 | -16.34633 | 2069 ft | 12 kts | 291° |
| 2026-05-06 12:52 | 28.48578 | -16.34720 | 2070 ft | 12 kts | 283° |
| 2026-05-06 12:52 | 28.48596 | -16.34787 | 2075 ft | 5 kts | 323° |
| 2026-05-06 12:52 | 28.48637 | -16.34780 | 2073 ft | 8 kts | 39° |
| 2026-05-06 12:52 | 28.48679 | -16.34745 | 2073 ft | 4 kts | 35° |
| 2026-05-06 12:53 | 28.48681 | -16.34743 | 2073 ft | 0 kts | 35° |